Time;durP1;ratioP1;P1;durP2;ratioP2;P2;SDS_P1;SDS_P2;PMS_P1;PMS_P2;Temp;Humidity;BMP_temperature;BMP_pressure;BME280_temperature;BME280_humidity;BME280_pressure;Samples;Min_cycle;Max_cycle;Signal;HPM_P1;HPM_P2
2023/07/14 00:00:42;;;;;;;86.63;55.40;;;;;;;;;;4988791;28;20611;-65
2023/07/14 00:03:11;;;;;;;85.40;55.83;;;;;;;;;;5003664;28;20038;-66
2023/07/14 00:05:39;;;;;;;93.60;58.22;;;;;;;;;;5012813;28;20117;-63
2023/07/14 00:08:07;;;;;;;88.53;57.30;;;;;;;;;;5002832;28;20419;-64
2023/07/14 00:10:35;;;;;;;86.18;57.33;;;;;;;;;;4996956;28;20410;-65
2023/07/14 00:13:03;;;;;;;92.07;58.35;;;;;;;;;;4997440;28;20057;-65
2023/07/14 00:15:31;;;;;;;88.80;58.95;;;;;;;;;;4975867;28;20034;-65
2023/07/14 00:18:03;;;;;;;94.72;60.03;;;;;;;;;;4998999;28;20184;-65
2023/07/14 00:20:32;;;;;;;87.97;57.70;;;;;;;;;;4997226;28;20831;-65
2023/07/14 00:22:59;;;;;;;94.85;61.35;;;;;;;;;;5001932;28;20045;-64
2023/07/14 00:25:26;;;;;;;94.00;59.95;;;;;;;;;;4996160;28;20042;-65
2023/07/14 00:27:54;;;;;;;90.15;60.17;;;;;;;;;;4997555;28;20065;-64
2023/07/14 00:30:23;;;;;;;92.88;59.80;;;;;;;;;;4994712;28;20046;-64
2023/07/14 00:32:51;;;;;;;91.22;58.95;;;;;;;;;;4996248;28;20803;-63
2023/07/14 00:35:22;;;;;;;89.70;59.35;;;;;;;;;;4996123;28;20034;-65
2023/07/14 00:37:49;;;;;;;88.50;58.33;;;;;;;;;;4996430;28;20046;-64
2023/07/14 00:40:17;;;;;;;94.97;60.25;;;;;;;;;;4997711;28;20499;-65
2023/07/14 00:42:45;;;;;;;90.38;59.80;;;;;;;;;;4996059;28;20056;-64
2023/07/14 00:45:16;;;;;;;93.75;59.40;;;;;;;;;;4997978;28;20034;-63
2023/07/14 00:47:43;;;;;;;90.22;56.97;;;;;;;;;;4997544;28;20053;-61
2023/07/14 00:50:23;;;;;;;91.63;58.45;;;;;;;;;;5001656;28;20526;-64
2023/07/14 00:52:50;;;;;;;94.18;61.10;;;;;;;;;;5000515;28;20046;-62
2023/07/14 00:55:25;;;;;;;92.15;60.45;;;;;;;;;;5001438;28;20038;-63
2023/07/14 00:57:53;;;;;;;97.03;60.30;;;;;;;;;;5002673;28;20041;-64
2023/07/14 01:00:23;;;;;;;100.18;63.75;;;;;;;;;;5001904;28;20037;-63
2023/07/14 01:02:50;;;;;;;90.85;60.65;;;;;;;;;;4999316;28;20049;-65
2023/07/14 01:05:17;;;;;;;92.57;60.25;;;;;;;;;;5000921;28;20137;-63
2023/07/14 01:07:45;;;;;;;97.55;63.25;;;;;;;;;;5000646;28;20806;-62
2023/07/14 01:10:13;;;;;;;100.28;64.68;;;;;;;;;;4996356;28;20576;-63
2023/07/14 01:12:43;;;;;;;99.97;66.07;;;;;;;;;;5000156;28;20487;-64
2023/07/14 01:15:29;;;;;;;100.32;64.05;;;;;;;;;;4986719;28;20045;-64
2023/07/14 01:17:56;;;;;;;99.57;65.57;;;;;;;;;;4998962;28;20050;-63
2023/07/14 01:20:23;;;;;;;102.60;68.25;;;;;;;;;;4997963;28;20049;-63
2023/07/14 01:23:08;;;;;;;103.05;68.63;;;;;;;;;;4996864;28;20037;-64
2023/07/14 01:25:37;;;;;;;101.65;66.00;;;;;;;;;;4997736;28;20042;-64
2023/07/14 01:28:07;;;;;;;101.00;67.60;;;;;;;;;;4998552;28;20058;-63
2023/07/14 01:30:35;;;;;;;110.47;69.68;;;;;;;;;;4996953;28;20050;-65
2023/07/14 01:33:01;;;;;;;102.75;67.22;;;;;;;;;;4997002;28;20034;-64
2023/07/14 01:35:29;;;;;;;105.97;70.22;;;;;;;;;;4998073;28;20102;-64
2023/07/14 01:37:56;;;;;;;109.85;70.43;;;;;;;;;;4998874;28;20046;-65
2023/07/14 01:40:23;;;;;;;108.40;68.72;;;;;;;;;;4977243;28;20058;-63
2023/07/14 01:42:52;;;;;;;106.70;70.45;;;;;;;;;;4996772;28;20514;-63
2023/07/14 01:45:19;;;;;;;109.80;68.07;;;;;;;;;;4996081;28;20048;-65
2023/07/14 01:47:48;;;;;;;106.57;68.80;;;;;;;;;;4998066;28;20066;-64
2023/07/14 01:50:23;;;;;;;109.85;69.95;;;;;;;;;;4999234;28;20073;-62
2023/07/14 01:52:52;;;;;;;113.53;71.00;;;;;;;;;;5003708;28;20691;-63
2023/07/14 01:55:20;;;;;;;114.00;72.88;;;;;;;;;;5001262;28;20049;-62
2023/07/14 01:57:48;;;;;;;115.00;73.22;;;;;;;;;;4998597;28;20566;-62
2023/07/14 02:00:16;;;;;;;117.88;74.00;;;;;;;;;;5000720;28;20038;-63
2023/07/14 02:02:44;;;;;;;118.05;75.10;;;;;;;;;;4998170;28;20456;-62
2023/07/14 02:05:34;;;;;;;117.57;75.03;;;;;;;;;;5000228;28;20042;-62
2023/07/14 02:08:07;;;;;;;118.18;75.47;;;;;;;;;;5001832;28;20050;-61
2023/07/14 02:10:34;;;;;;;117.90;75.20;;;;;;;;;;5000153;28;20148;-63
2023/07/14 02:13:02;;;;;;;116.85;76.45;;;;;;;;;;5001647;28;20022;-65
2023/07/14 02:15:30;;;;;;;118.25;77.28;;;;;;;;;;4998608;28;20027;-62
2023/07/14 02:17:57;;;;;;;125.20;78.85;;;;;;;;;;4998891;28;20077;-63
2023/07/14 02:20:26;;;;;;;117.38;75.57;;;;;;;;;;4999669;28;20042;-63
2023/07/14 02:22:54;;;;;;;121.93;78.22;;;;;;;;;;4999780;28;20505;-62
2023/07/14 02:25:22;;;;;;;123.43;75.82;;;;;;;;;;5000127;28;20747;-62
2023/07/14 02:27:49;;;;;;;120.30;76.18;;;;;;;;;;5020600;28;20058;-63
2023/07/14 02:30:17;;;;;;;127.03;80.50;;;;;;;;;;5000824;28;20100;-64
2023/07/14 02:32:47;;;;;;;126.75;79.45;;;;;;;;;;4989384;28;20065;-61
2023/07/14 02:35:23;;;;;;;125.57;79.53;;;;;;;;;;5014997;28;20038;-63
2023/07/14 02:38:01;;;;;;;131.23;82.38;;;;;;;;;;4999058;28;20624;-63
2023/07/14 02:40:33;;;;;;;133.25;83.32;;;;;;;;;;5014438;28;20087;-64
2023/07/14 02:42:59;;;;;;;128.98;84.20;;;;;;;;;;4993222;28;20466;-62
2023/07/14 02:45:26;;;;;;;132.45;82.05;;;;;;;;;;4997154;28;20034;-66
2023/07/14 02:47:55;;;;;;;134.70;86.72;;;;;;;;;;4999287;28;20038;-63
2023/07/14 02:50:21;;;;;;;127.07;83.22;;;;;;;;;;5013448;28;20055;-62
2023/07/14 02:52:48;;;;;;;140.15;88.75;;;;;;;;;;4996539;28;20066;-61
2023/07/14 02:55:15;;;;;;;133.77;86.72;;;;;;;;;;4998118;28;20042;-62
2023/07/14 02:57:41;;;;;;;133.73;85.75;;;;;;;;;;4997299;28;20022;-63
2023/07/14 03:00:08;;;;;;;137.35;88.25;;;;;;;;;;4996756;28;20100;-63
2023/07/14 03:02:35;;;;;;;143.32;89.53;;;;;;;;;;4996651;28;20046;-64
2023/07/14 03:05:02;;;;;;;140.80;88.18;;;;;;;;;;4997690;28;20069;-65
2023/07/14 03:07:30;;;;;;;133.95;85.05;;;;;;;;;;4998274;28;20038;-65
2023/07/14 03:09:57;;;;;;;129.88;83.70;;;;;;;;;;4999019;28;20053;-63
2023/07/14 03:12:24;;;;;;;138.27;88.47;;;;;;;;;;5000707;28;20041;-63
2023/07/14 03:14:51;;;;;;;141.73;87.85;;;;;;;;;;4999341;28;20046;-64
2023/07/14 03:17:37;;;;;;;138.60;88.85;;;;;;;;;;5005226;28;20620;-64
2023/07/14 03:20:04;;;;;;;139.80;86.93;;;;;;;;;;5006262;28;20521;-64
2023/07/14 03:22:31;;;;;;;138.00;87.38;;;;;;;;;;5005701;28;20033;-64
2023/07/14 03:25:00;;;;;;;134.20;85.97;;;;;;;;;;5007483;28;20056;-62
2023/07/14 03:27:27;;;;;;;136.82;89.55;;;;;;;;;;5008353;28;20868;-63
2023/07/14 03:29:54;;;;;;;139.75;88.13;;;;;;;;;;5010642;28;20057;-63
2023/07/14 03:32:21;;;;;;;137.90;87.45;;;;;;;;;;5006530;28;20030;-64
2023/07/14 03:34:47;;;;;;;142.52;89.45;;;;;;;;;;5006344;28;20045;-66
2023/07/14 03:37:14;;;;;;;142.60;90.18;;;;;;;;;;5004480;28;20069;-64
2023/07/14 03:39:41;;;;;;;144.02;87.90;;;;;;;;;;5008270;28;20051;-65
2023/07/14 03:42:07;;;;;;;143.55;89.35;;;;;;;;;;5015184;28;20033;-64
2023/07/14 03:44:34;;;;;;;146.05;90.50;;;;;;;;;;5008347;28;20040;-65
2023/07/14 03:47:02;;;;;;;142.65;89.78;;;;;;;;;;4993731;28;20050;-64
2023/07/14 03:49:29;;;;;;;145.55;89.03;;;;;;;;;;4996415;28;20045;-64
2023/07/14 03:51:56;;;;;;;154.45;91.45;;;;;;;;;;4995549;28;20046;-63
2023/07/14 03:54:23;;;;;;;148.88;92.30;;;;;;;;;;4997039;28;20572;-64
2023/07/14 03:56:49;;;;;;;149.15;92.32;;;;;;;;;;4994116;28;20096;-64
2023/07/14 03:59:16;;;;;;;148.45;91.18;;;;;;;;;;4996097;28;20044;-66
2023/07/14 04:01:42;;;;;;;154.77;94.78;;;;;;;;;;4995806;28;20088;-63
2023/07/14 04:04:09;;;;;;;154.68;91.50;;;;;;;;;;4997032;28;20041;-64
2023/07/14 04:06:35;;;;;;;151.07;93.28;;;;;;;;;;4998906;28;20034;-63
2023/07/14 04:09:02;;;;;;;156.50;96.65;;;;;;;;;;4998223;28;20088;-64
2023/07/14 04:11:29;;;;;;;153.43;95.97;;;;;;;;;;4998517;28;20053;-64
2023/07/14 04:13:56;;;;;;;158.85;93.82;;;;;;;;;;4998888;28;20084;-63
2023/07/14 04:16:23;;;;;;;150.60;91.13;;;;;;;;;;4998615;28;20029;-64
2023/07/14 04:18:50;;;;;;;150.60;92.38;;;;;;;;;;4996815;28;20049;-64
2023/07/14 04:21:17;;;;;;;149.05;91.07;;;;;;;;;;4994434;28;20054;-66
2023/07/14 04:23:43;;;;;;;155.73;95.65;;;;;;;;;;4996465;28;20397;-65
2023/07/14 04:26:12;;;;;;;152.45;93.60;;;;;;;;;;4998122;28;20411;-64
2023/07/14 04:28:39;;;;;;;152.93;92.97;;;;;;;;;;4995438;28;20046;-64
2023/07/14 04:31:06;;;;;;;153.18;93.60;;;;;;;;;;4997430;28;20052;-64
2023/07/14 04:33:32;;;;;;;164.15;95.40;;;;;;;;;;4996390;28;20057;-65
2023/07/14 04:35:59;;;;;;;163.07;97.25;;;;;;;;;;4997953;28;20046;-63
2023/07/14 04:38:26;;;;;;;153.10;94.40;;;;;;;;;;4992549;28;20033;-64
2023/07/14 04:40:53;;;;;;;157.52;93.78;;;;;;;;;;4994683;28;20034;-65
2023/07/14 04:43:20;;;;;;;162.50;96.28;;;;;;;;;;4997294;28;20045;-65
2023/07/14 04:45:47;;;;;;;165.35;96.47;;;;;;;;;;5012374;28;20103;-65
2023/07/14 04:48:14;;;;;;;166.00;95.72;;;;;;;;;;4998215;28;20534;-65
2023/07/14 04:50:41;;;;;;;160.27;94.50;;;;;;;;;;4995883;28;20085;-64
2023/07/14 04:53:08;;;;;;;157.85;92.95;;;;;;;;;;5012700;28;20164;-65
2023/07/14 04:55:41;;;;;;;158.77;96.47;;;;;;;;;;4997856;28;20034;-64
2023/07/14 04:58:08;;;;;;;158.27;93.88;;;;;;;;;;4997088;28;20366;-65
2023/07/14 05:00:35;;;;;;;157.32;94.10;;;;;;;;;;4997096;28;20049;-63
2023/07/14 05:03:02;;;;;;;161.43;95.00;;;;;;;;;;4998933;28;20045;-62
2023/07/14 05:05:29;;;;;;;160.38;96.10;;;;;;;;;;4999800;28;20538;-64
2023/07/14 05:07:55;;;;;;;159.40;95.40;;;;;;;;;;4998729;28;20537;-67
2023/07/14 05:10:23;;;;;;;167.93;97.07;;;;;;;;;;4992710;28;20054;-62
2023/07/14 05:12:54;;;;;;;156.52;94.40;;;;;;;;;;4996321;28;20053;-64
2023/07/14 05:15:21;;;;;;;167.13;96.03;;;;;;;;;;4997549;28;20042;-64
2023/07/14 05:17:48;;;;;;;157.25;93.45;;;;;;;;;;4996904;28;20062;-63
2023/07/14 05:20:16;;;;;;;154.88;94.57;;;;;;;;;;4996606;28;20046;-64
2023/07/14 05:22:44;;;;;;;142.52;90.20;;;;;;;;;;4989062;28;20092;-64
2023/07/14 05:25:13;;;;;;;154.13;89.88;;;;;;;;;;4994755;28;20034;-64
2023/07/14 05:27:41;;;;;;;149.57;90.10;;;;;;;;;;4995979;28;20034;-64
2023/07/14 05:30:11;;;;;;;149.55;88.35;;;;;;;;;;4995858;28;20545;-62
2023/07/14 05:32:38;;;;;;;146.50;87.82;;;;;;;;;;4992820;28;20034;-63
2023/07/14 05:35:06;;;;;;;144.65;86.43;;;;;;;;;;5009254;28;20124;-64
2023/07/14 05:37:53;;;;;;;146.20;82.85;;;;;;;;;;5010049;28;20507;-64
2023/07/14 05:40:20;;;;;;;138.77;84.68;;;;;;;;;;5008149;28;20066;-62
2023/07/14 05:42:47;;;;;;;144.45;86.82;;;;;;;;;;5007231;28;20080;-62
2023/07/14 05:45:14;;;;;;;149.02;87.70;;;;;;;;;;5010030;28;20099;-63
2023/07/14 05:47:43;;;;;;;152.50;89.68;;;;;;;;;;5007501;28;20046;-63
2023/07/14 05:50:10;;;;;;;146.40;88.45;;;;;;;;;;5008955;28;20075;-67
2023/07/14 05:52:56;;;;;;;153.45;93.60;;;;;;;;;;4993354;28;20402;-64
2023/07/14 05:55:23;;;;;;;164.75;95.50;;;;;;;;;;4992731;28;20037;-64
2023/07/14 05:57:50;;;;;;;168.05;98.40;;;;;;;;;;4993728;28;20422;-66
2023/07/14 06:00:18;;;;;;;164.85;96.93;;;;;;;;;;4991821;28;20053;-63
2023/07/14 06:02:46;;;;;;;168.40;98.10;;;;;;;;;;4991111;28;20083;-65
2023/07/14 06:05:13;;;;;;;168.30;98.03;;;;;;;;;;4993651;28;20570;-65
2023/07/14 06:07:40;;;;;;;166.27;95.75;;;;;;;;;;4993518;28;20577;-63
2023/07/14 06:10:08;;;;;;;162.88;97.63;;;;;;;;;;4977303;28;20054;-65
2023/07/14 06:12:35;;;;;;;168.90;100.47;;;;;;;;;;4983505;28;20042;-68
2023/07/14 06:15:02;;;;;;;166.68;96.85;;;;;;;;;;4975719;28;20042;-64
2023/07/14 06:17:29;;;;;;;154.73;91.95;;;;;;;;;;4977396;28;20050;-64
2023/07/14 06:19:56;;;;;;;153.18;92.07;;;;;;;;;;4975857;28;20065;-64
2023/07/14 06:22:23;;;;;;;151.18;89.75;;;;;;;;;;4974831;28;20034;-65
2023/07/14 06:24:49;;;;;;;147.18;86.80;;;;;;;;;;4975902;28;20038;-64
2023/07/14 06:27:16;;;;;;;141.27;84.20;;;;;;;;;;4960504;28;20065;-63
2023/07/14 06:29:43;;;;;;;142.35;84.47;;;;;;;;;;4974289;28;20264;-65
2023/07/14 06:32:09;;;;;;;137.18;84.97;;;;;;;;;;5011480;28;20052;-64
2023/07/14 06:34:36;;;;;;;132.40;80.43;;;;;;;;;;4998385;28;20034;-65
2023/07/14 06:37:03;;;;;;;133.75;80.40;;;;;;;;;;4999944;28;20030;-65
2023/07/14 06:39:30;;;;;;;133.40;79.43;;;;;;;;;;4998106;28;20045;-63
2023/07/14 06:41:57;;;;;;;129.82;80.88;;;;;;;;;;4998196;28;20042;-64
2023/07/14 06:44:24;;;;;;;130.18;79.22;;;;;;;;;;4995877;28;20559;-65
2023/07/14 06:46:50;;;;;;;131.90;78.40;;;;;;;;;;4998389;28;20506;-64
2023/07/14 06:49:17;;;;;;;121.38;74.57;;;;;;;;;;5000808;28;20052;-64
2023/07/14 06:51:44;;;;;;;132.65;77.82;;;;;;;;;;4998366;28;20045;-65
2023/07/14 06:54:11;;;;;;;115.05;70.93;;;;;;;;;;4993844;28;20532;-66
2023/07/14 06:56:37;;;;;;;115.68;70.30;;;;;;;;;;5014979;28;20661;-64
2023/07/14 06:59:04;;;;;;;113.75;66.70;;;;;;;;;;5000728;28;20083;-65
2023/07/14 07:01:31;;;;;;;107.13;65.78;;;;;;;;;;5018307;28;20585;-67
2023/07/14 07:03:59;;;;;;;103.40;62.55;;;;;;;;;;4999080;28;20040;-63
2023/07/14 07:06:26;;;;;;;97.15;57.90;;;;;;;;;;5021528;28;20063;-65
2023/07/14 07:08:52;;;;;;;93.70;56.65;;;;;;;;;;4996028;28;20440;-65
2023/07/14 07:11:19;;;;;;;87.55;53.55;;;;;;;;;;5005030;28;20049;-64
2023/07/14 07:13:45;;;;;;;86.75;53.40;;;;;;;;;;5003081;28;20065;-64
2023/07/14 07:16:12;;;;;;;86.88;52.88;;;;;;;;;;5004414;28;20053;-65
2023/07/14 07:18:39;;;;;;;90.20;52.90;;;;;;;;;;5004371;28;20095;-65
2023/07/14 07:21:07;;;;;;;88.28;50.80;;;;;;;;;;5005678;28;20045;-65
2023/07/14 07:23:34;;;;;;;82.88;50.65;;;;;;;;;;5001464;28;20968;-65
2023/07/14 07:26:01;;;;;;;86.18;51.60;;;;;;;;;;5005323;28;20540;-67
2023/07/14 07:28:28;;;;;;;85.97;50.13;;;;;;;;;;5003834;28;20041;-65
2023/07/14 07:30:54;;;;;;;78.38;45.97;;;;;;;;;;5004929;28;20598;-65
2023/07/14 07:33:21;;;;;;;78.75;46.70;;;;;;;;;;5003887;28;20068;-65
2023/07/14 07:35:48;;;;;;;80.40;48.22;;;;;;;;;;5004882;28;21388;-66
2023/07/14 07:38:14;;;;;;;72.70;46.25;;;;;;;;;;5001604;28;20520;-65
2023/07/14 07:40:42;;;;;;;76.28;45.30;;;;;;;;;;5010487;28;20490;-65
2023/07/14 07:43:08;;;;;;;75.72;45.97;;;;;;;;;;4998201;28;20058;-64
2023/07/14 07:45:35;;;;;;;73.22;46.28;;;;;;;;;;4996942;28;20116;-64
2023/07/14 07:48:01;;;;;;;70.97;42.72;;;;;;;;;;4997011;28;20115;-64
2023/07/14 07:50:28;;;;;;;67.82;42.40;;;;;;;;;;4998748;28;20056;-64
2023/07/14 07:52:55;;;;;;;73.22;43.97;;;;;;;;;;4999346;28;20276;-64
2023/07/14 07:55:22;;;;;;;70.35;41.80;;;;;;;;;;4998364;28;20033;-64
2023/07/14 07:57:48;;;;;;;72.50;42.63;;;;;;;;;;4996480;28;20680;-64
2023/07/14 08:00:15;;;;;;;66.20;40.72;;;;;;;;;;4996701;28;20050;-64
2023/07/14 08:02:42;;;;;;;71.07;41.78;;;;;;;;;;5013704;28;20061;-64
2023/07/14 08:05:11;;;;;;;66.25;39.95;;;;;;;;;;4998903;28;20045;-65
2023/07/14 08:07:38;;;;;;;70.97;38.85;;;;;;;;;;4992503;28;20045;-65
2023/07/14 08:10:05;;;;;;;64.22;38.40;;;;;;;;;;4996893;28;20053;-64
2023/07/14 08:12:32;;;;;;;61.50;38.30;;;;;;;;;;4998774;28;20030;-63
2023/07/14 08:14:59;;;;;;;61.63;37.88;;;;;;;;;;4997176;28;20487;-64
2023/07/14 08:17:27;;;;;;;64.47;40.25;;;;;;;;;;5013295;28;20833;-65
2023/07/14 08:19:53;;;;;;;74.25;41.83;;;;;;;;;;4996679;28;20660;-65
2023/07/14 08:22:21;;;;;;;67.45;40.03;;;;;;;;;;4994515;28;20060;-64
2023/07/14 08:24:48;;;;;;;69.32;40.92;;;;;;;;;;4996553;28;20046;-64
2023/07/14 08:27:15;;;;;;;64.05;40.88;;;;;;;;;;4990338;28;20030;-63
2023/07/14 08:29:42;;;;;;;65.60;40.88;;;;;;;;;;4996435;28;20056;-66
2023/07/14 08:32:08;;;;;;;66.80;40.97;;;;;;;;;;4996209;28;20953;-65
2023/07/14 08:34:36;;;;;;;65.88;39.90;;;;;;;;;;4995513;28;20038;-64
2023/07/14 08:37:04;;;;;;;65.45;39.42;;;;;;;;;;4997660;28;20092;-64
2023/07/14 08:39:32;;;;;;;61.35;38.85;;;;;;;;;;4996173;28;20710;-65
2023/07/14 08:42:06;;;;;;;66.43;40.03;;;;;;;;;;4995487;28;20073;-64
2023/07/14 08:44:33;;;;;;;65.25;39.15;;;;;;;;;;4995304;28;20048;-64
2023/07/14 08:47:07;;;;;;;68.88;40.00;;;;;;;;;;4995282;28;20037;-63
2023/07/14 08:49:46;;;;;;;66.45;39.42;;;;;;;;;;5011672;28;20046;-64
2023/07/14 08:52:20;;;;;;;65.63;39.33;;;;;;;;;;4994749;28;20042;-63
2023/07/14 08:55:02;;;;;;;64.88;40.40;;;;;;;;;;4992999;28;20056;-64
2023/07/14 08:57:29;;;;;;;68.18;40.60;;;;;;;;;;4988935;28;20376;-64
2023/07/14 08:59:57;;;;;;;69.53;40.13;;;;;;;;;;4990644;28;20046;-62
2023/07/14 09:02:41;;;;;;;65.15;39.45;;;;;;;;;;4995507;28;20042;-65
2023/07/14 09:05:21;;;;;;;65.15;38.08;;;;;;;;;;4995283;28;20108;-62
2023/07/14 09:07:48;;;;;;;67.57;40.63;;;;;;;;;;4996059;28;20080;-63
2023/07/14 09:10:14;;;;;;;66.35;39.72;;;;;;;;;;4999219;28;20116;-65
2023/07/14 09:13:06;;;;;;;67.20;38.88;;;;;;;;;;4998256;28;20187;-65
2023/07/14 09:15:33;;;;;;;65.68;38.97;;;;;;;;;;4997313;28;20050;-64
2023/07/14 09:18:18;;;;;;;66.05;38.80;;;;;;;;;;5015242;28;20120;-64
2023/07/14 09:20:48;;;;;;;67.90;39.22;;;;;;;;;;4997946;28;20655;-65
2023/07/14 09:23:19;;;;;;;65.05;38.90;;;;;;;;;;4999459;28;20038;-64
2023/07/14 09:26:11;;;;;;;64.72;39.70;;;;;;;;;;4999359;28;20046;-64
2023/07/14 09:28:50;;;;;;;67.28;39.53;;;;;;;;;;4989300;28;20046;-64
2023/07/14 09:31:17;;;;;;;69.05;41.15;;;;;;;;;;5003179;28;20524;-64
2023/07/14 09:33:54;;;;;;;66.78;40.50;;;;;;;;;;4997358;28;21577;-64
2023/07/14 09:36:22;;;;;;;66.10;38.38;;;;;;;;;;4999363;28;20038;-63
2023/07/14 09:38:53;;;;;;;65.45;37.92;;;;;;;;;;4997645;28;20030;-65
2023/07/14 09:41:28;;;;;;;66.15;39.78;;;;;;;;;;4995069;28;20049;-64
2023/07/14 09:43:59;;;;;;;66.32;39.05;;;;;;;;;;5000947;28;20950;-63
2023/07/14 09:46:26;;;;;;;67.88;38.83;;;;;;;;;;5000778;28;20562;-63
2023/07/14 09:48:57;;;;;;;64.65;39.47;;;;;;;;;;5001563;28;20064;-62
2023/07/14 09:51:24;;;;;;;65.00;37.97;;;;;;;;;;4999177;28;20038;-66
2023/07/14 09:53:58;;;;;;;68.45;40.72;;;;;;;;;;5015221;28;20041;-63
2023/07/14 09:59:05;;;;;;;69.75;40.33;;;;;;;;;;5698229;22;20231;-65
2023/07/14 10:01:32;;;;;;;67.63;39.72;;;;;;;;;;5039601;23;20051;-66
2023/07/14 10:04:13;;;;;;;65.50;39.88;;;;;;;;;;5059609;28;20052;-67
2023/07/14 10:06:41;;;;;;;70.25;39.80;;;;;;;;;;5059854;28;20079;-65
2023/07/14 10:09:11;;;;;;;67.57;40.95;;;;;;;;;;5061222;28;20528;-66
2023/07/14 10:12:01;;;;;;;68.10;39.72;;;;;;;;;;5048168;28;20063;-65
2023/07/14 10:14:38;;;;;;;71.20;39.92;;;;;;;;;;5042447;28;20052;-69
2023/07/14 10:17:07;;;;;;;66.68;39.60;;;;;;;;;;5048946;28;20127;-64
2023/07/14 10:19:43;;;;;;;69.63;41.40;;;;;;;;;;5042755;28;20071;-66
2023/07/14 10:22:31;;;;;;;67.43;41.58;;;;;;;;;;5002957;28;20097;-67
2023/07/14 10:24:59;;;;;;;70.90;42.05;;;;;;;;;;5008466;28;20042;-66
2023/07/14 10:27:28;;;;;;;71.47;42.65;;;;;;;;;;5011484;28;20124;-66
2023/07/14 10:30:06;;;;;;;69.00;41.63;;;;;;;;;;5009637;28;20144;-65
2023/07/14 10:32:39;;;;;;;72.50;41.53;;;;;;;;;;5008572;28;20044;-66
2023/07/14 10:35:11;;;;;;;69.78;41.97;;;;;;;;;;5010799;28;20042;-66
2023/07/14 10:37:58;;;;;;;70.00;41.60;;;;;;;;;;5010228;28;20049;-65
2023/07/14 10:40:27;;;;;;;71.40;40.80;;;;;;;;;;4997084;28;20069;-66
2023/07/14 10:43:03;;;;;;;71.55;42.47;;;;;;;;;;4996710;28;20038;-66
2023/07/14 10:45:30;;;;;;;71.82;40.50;;;;;;;;;;4995494;28;20037;-66
2023/07/14 10:48:07;;;;;;;66.38;41.45;;;;;;;;;;4995860;28;20402;-65
2023/07/14 10:50:36;;;;;;;72.15;41.20;;;;;;;;;;4995030;28;20480;-65
2023/07/14 10:53:14;;;;;;;70.05;40.97;;;;;;;;;;5005116;28;20075;-64
2023/07/14 10:55:43;;;;;;;72.38;42.20;;;;;;;;;;5025794;28;20045;-65
2023/07/14 10:58:09;;;;;;;72.78;41.53;;;;;;;;;;5024607;28;20045;-64
2023/07/14 11:00:46;;;;;;;73.70;41.70;;;;;;;;;;5025479;28;20052;-62
2023/07/14 11:03:30;;;;;;;71.32;40.45;;;;;;;;;;5030295;28;20041;-61
2023/07/14 11:05:56;;;;;;;;;;;;;;;;;;5030388;28;20452;-62
2023/07/14 11:08:27;;;;;;;70.75;39.90;;;;;;;;;;5027488;28;20273;-62
2023/07/14 11:11:06;;;;;;;69.25;40.97;;;;;;;;;;5035107;28;20156;-62
2023/07/14 11:13:44;;;;;;;75.90;41.00;;;;;;;;;;5061846;28;20041;-62
2023/07/14 11:16:13;;;;;;;73.68;41.88;;;;;;;;;;5066361;28;20052;-63
2023/07/14 11:18:53;;;;;;;75.32;40.70;;;;;;;;;;5061785;28;21260;-64
2023/07/14 11:21:27;;;;;;;78.00;41.53;;;;;;;;;;5063029;28;20376;-65
2023/07/14 11:24:13;;;;;;;71.25;40.78;;;;;;;;;;5060899;28;20032;-62
2023/07/14 11:26:40;;;;;;;77.78;42.30;;;;;;;;;;5058911;28;20044;-62
2023/07/14 11:29:11;;;;;;;67.40;40.20;;;;;;;;;;5061730;28;20042;-63
2023/07/14 11:31:44;;;;;;;71.68;40.42;;;;;;;;;;5057610;28;20052;-63
2023/07/14 11:34:11;;;;;;;;;;;;;;;;;;5035628;28;20048;-64
2023/07/14 11:36:48;;;;;;;69.32;40.33;;;;;;;;;;5062467;28;19920;-63
2023/07/14 11:39:24;;;;;;;78.13;42.03;;;;;;;;;;5058191;28;20502;-63
2023/07/14 11:41:52;;;;;;;75.35;40.90;;;;;;;;;;5062264;28;20040;-63
2023/07/14 11:44:20;;;;;;;75.78;43.45;;;;;;;;;;5063087;28;20048;-62
2023/07/14 11:46:49;;;;;;;80.20;43.08;;;;;;;;;;5063042;28;21079;-63
2023/07/14 11:49:34;;;;;;;76.95;43.47;;;;;;;;;;5066165;28;20039;-61
2023/07/14 11:52:11;;;;;;;75.35;43.05;;;;;;;;;;5063987;28;20118;-64
2023/07/14 11:55:04;;;;;;;73.88;43.75;;;;;;;;;;5042841;28;20040;-61
2023/07/14 11:57:31;;;;;;;76.37;44.07;;;;;;;;;;5041030;28;20044;-62
2023/07/14 12:00:06;;;;;;;75.15;42.95;;;;;;;;;;5062648;28;20035;-63
2023/07/14 12:02:42;;;;;;;75.97;42.80;;;;;;;;;;5058402;28;20060;-63
2023/07/14 12:05:15;;;;;;;76.60;44.13;;;;;;;;;;5057547;28;20044;-64
2023/07/14 12:08:00;;;;;;;72.78;43.38;;;;;;;;;;5061688;28;20116;-64
2023/07/14 12:10:39;;;;;;;70.45;41.58;;;;;;;;;;5060341;28;20056;-64
2023/07/14 12:13:18;;;;;;;73.38;41.60;;;;;;;;;;5062612;28;20028;-64
2023/07/14 12:15:50;;;;;;;74.63;42.30;;;;;;;;;;5060047;28;20051;-64
2023/07/14 12:18:36;;;;;;;73.65;40.80;;;;;;;;;;5043733;28;20047;-67
2023/07/14 12:21:15;;;;;;;73.05;42.28;;;;;;;;;;5046015;28;20043;-64
2023/07/14 12:23:48;;;;;;;65.00;39.13;;;;;;;;;;5062239;28;20119;-63
2023/07/14 12:26:17;;;;;;;64.72;37.83;;;;;;;;;;5065440;28;20036;-63
2023/07/14 12:28:44;;;;;;;63.20;36.90;;;;;;;;;;5061917;28;20047;-64
2023/07/14 12:31:13;;;;;;;61.15;36.20;;;;;;;;;;5046270;28;20044;-65
2023/07/14 12:33:40;;;;;;;58.83;35.17;;;;;;;;;;5048415;28;20179;-64
2023/07/14 12:36:12;;;;;;;58.08;35.60;;;;;;;;;;5059755;28;20040;-63
2023/07/14 12:38:44;;;;;;;61.42;35.47;;;;;;;;;;5059533;28;20094;-63
2023/07/14 12:41:11;;;;;;;58.88;34.60;;;;;;;;;;5058558;28;20137;-62
2023/07/14 12:43:40;;;;;;;60.80;33.05;;;;;;;;;;5057801;28;20833;-64
2023/07/14 12:46:25;;;;;;;56.55;33.55;;;;;;;;;;5055550;28;20040;-64
2023/07/14 12:48:59;;;;;;;56.60;32.92;;;;;;;;;;5057930;28;20093;-64
2023/07/14 12:51:26;;;;;;;55.58;33.10;;;;;;;;;;5057863;28;20057;-63
2023/07/14 12:54:00;;;;;;;54.67;32.97;;;;;;;;;;5039462;28;20046;-64
2023/07/14 12:56:29;;;;;;;57.20;32.90;;;;;;;;;;5060918;28;20056;-65
2023/07/14 12:58:56;;;;;;;55.83;32.85;;;;;;;;;;5058796;28;20052;-67
2023/07/14 13:01:23;;;;;;;55.35;32.53;;;;;;;;;;5042204;28;20048;-65
2023/07/14 13:03:50;;;;;;;54.08;32.42;;;;;;;;;;5056248;28;20247;-63
2023/07/14 13:06:17;;;;;;;51.35;31.17;;;;;;;;;;5033973;28;20037;-63
2023/07/14 13:08:50;;;;;;;54.40;31.23;;;;;;;;;;5049299;28;20075;-62
2023/07/14 13:11:19;;;;;;;;;;;;;;;;;;5058275;28;20056;-63
2023/07/14 13:13:49;;;;;;;52.53;30.30;;;;;;;;;;5058140;28;19921;-65
2023/07/14 13:16:16;;;;;;;53.65;32.40;;;;;;;;;;5049032;28;20049;-64
2023/07/14 13:18:53;;;;;;;56.60;31.92;;;;;;;;;;5055130;28;20114;-64
2023/07/14 13:21:36;;;;;;;53.80;32.20;;;;;;;;;;5058737;28;20055;-64
2023/07/14 13:24:10;;;;;;;56.97;31.77;;;;;;;;;;5058161;28;20067;-67
2023/07/14 13:26:46;;;;;;;54.20;32.10;;;;;;;;;;5031577;28;20531;-63
2023/07/14 13:29:16;;;;;;;53.45;31.63;;;;;;;;;;5058476;28;20081;-61
2023/07/14 13:31:42;;;;;;;51.22;30.65;;;;;;;;;;5058547;28;20048;-63
2023/07/14 13:34:18;;;;;;;54.13;30.33;;;;;;;;;;5058291;28;20036;-63
2023/07/14 13:36:45;;;;;;;51.78;30.75;;;;;;;;;;5062132;28;20922;-64
2023/07/14 13:39:22;;;;;;;46.60;28.58;;;;;;;;;;5045274;28;20089;-62
2023/07/14 13:41:49;;;;;;;51.58;30.77;;;;;;;;;;5043846;28;20095;-63
2023/07/14 13:44:36;;;;;;;55.42;31.70;;;;;;;;;;5059252;28;20040;-62
2023/07/14 13:47:17;;;;;;;46.03;28.77;;;;;;;;;;5058368;28;20067;-63
2023/07/14 13:49:45;;;;;;;49.75;29.85;;;;;;;;;;5059396;28;20048;-64
2023/07/14 13:52:13;;;;;;;49.05;29.95;;;;;;;;;;5039302;28;20068;-62
2023/07/14 13:54:41;;;;;;;49.03;30.40;;;;;;;;;;5059055;28;20071;-65
2023/07/14 13:57:11;;;;;;;50.83;30.00;;;;;;;;;;5036900;28;20055;-61
2023/07/14 13:59:38;;;;;;;48.90;30.67;;;;;;;;;;5062446;28;20032;-61
2023/07/14 14:02:12;;;;;;;50.88;31.25;;;;;;;;;;5029406;28;20040;-63
2023/07/14 14:04:38;;;;;;;55.25;30.60;;;;;;;;;;5060382;28;20099;-61
2023/07/14 14:07:06;;;;;;;52.28;32.15;;;;;;;;;;5062471;28;20043;-60
2023/07/14 14:09:33;;;;;;;51.60;31.98;;;;;;;;;;5061552;28;20044;-64
2023/07/14 14:11:59;;;;;;;53.35;32.25;;;;;;;;;;5063798;28;20025;-64
2023/07/14 14:14:26;;;;;;;53.00;32.97;;;;;;;;;;5062323;28;20041;-63
2023/07/14 14:16:52;;;;;;;56.50;32.45;;;;;;;;;;5063880;28;20041;-63
2023/07/14 14:19:22;;;;;;;58.15;34.10;;;;;;;;;;5048017;28;20073;-65
2023/07/14 14:21:54;;;;;;;52.78;32.28;;;;;;;;;;5048537;28;20040;-64
2023/07/14 14:24:21;;;;;;;55.63;34.40;;;;;;;;;;5063086;28;20514;-63
2023/07/14 14:26:47;;;;;;;50.90;31.83;;;;;;;;;;5062605;28;20036;-63
2023/07/14 14:29:15;;;;;;;53.78;31.83;;;;;;;;;;5061981;28;20492;-64
2023/07/14 14:31:42;;;;;;;54.22;31.98;;;;;;;;;;5046290;28;20054;-63